WetterOnline ( http://www.wetteronline.de )

Wetter aktuell Kappeln

Aktuelles Wetter: Schönhagen (Ostseebad) (2m)

6-stündlich | Neueste Meldungen
Ortszeit Temperatur Wetter
Di, 16.10. 20:00 14.1° C wolkig
Di, 16.10. 14:00 18.5° C wolkenlos
Di, 16.10. 8:00 12.5° C wolkenlos
Di, 16.10. 2:00 13.7° C bewölkt
Mo, 15.10. 20:00 12.6° C wolkenlos
Mo, 15.10. 14:00 16.8° C wolkenlos
Mo, 15.10. 8:00 11.2° C wolkenlos
Mo, 15.10. 2:00 15.2° C wolkenlos
Ortszeit Temperatur Wetter
Mi, 17.10. 0:30 10.9° C Nebel
Mi, 17.10. 0:10 10.8° C Nebel
Mi, 17.10. 0:00 12.0° C Nebel
Di, 16.10. 23:50 12.0° C Nebel
Di, 16.10. 23:40 12.4° C Nebel
Di, 16.10. 23:30 12.6° C Nebel
Di, 16.10. 23:00 13.1° C bewölkt
Di, 16.10. 22:30 13.5° C bewölkt
Di, 16.10. 22:00 12.6° C Nebel
Di, 16.10. 21:30 13.5° C wolkig
Ortszeit Relative Feuchte Sichtweite
Di, 16.10. 20:00 97% 3.5 km
Di, 16.10. 14:00 79% 9 km
Di, 16.10. 8:00 93% 7 km
Di, 16.10. 2:00 86% 18 km
Mo, 15.10. 20:00 97% 6 km
Mo, 15.10. 14:00 75% 9 km
Mo, 15.10. 8:00 85% 23 km
Mo, 15.10. 2:00 69% 30 km
Ortszeit Relative Feuchte Sichtweite
Mi, 17.10. 0:30 100% 100 m
Mi, 17.10. 0:10 99% -
Mi, 17.10. 0:00 100% 100 m
Di, 16.10. 23:50 100% -
Di, 16.10. 23:40 100% -
Di, 16.10. 23:30 100% 100 m
Di, 16.10. 23:00 99% 1.4 km
Di, 16.10. 22:30 100% 3.0 km
Di, 16.10. 22:00 99% 100 m
Di, 16.10. 21:30 99% 2.9 km
Ortszeit Niederschlagsmenge Niederschlagsart
Di, 16.10. 20:00 0.0 l/m2 in 12 Std. -
Di, 16.10. 14:00 0.0 l/m2 in 6 Std. -
Di, 16.10. 8:00 0.0 l/m2 in 12 Std. -
Di, 16.10. 2:00 0.0 l/m2 in 6 Std. -
Mo, 15.10. 20:00 0.0 l/m2 in 12 Std. -
Mo, 15.10. 14:00 0.0 l/m2 in 6 Std. -
Mo, 15.10. 8:00 0.0 l/m2 in 12 Std. -
Mo, 15.10. 2:00 0.0 l/m2 in 6 Std. -
Ortszeit Niederschlagsmenge Niederschlagsart
Mi, 17.10. 0:30 0.0 l/m2 in 1 Std. -
Mi, 17.10. 0:10 keine Meldung -
Mi, 17.10. 0:00 0.0 l/m2 in 1 Std. -
Di, 16.10. 23:50 keine Meldung -
Di, 16.10. 23:40 keine Meldung -
Di, 16.10. 23:30 0.0 l/m2 in 1 Std. -
Di, 16.10. 23:00 0.0 l/m2 in 1 Std. -
Di, 16.10. 22:30 0.0 l/m2 in 1 Std. -
Di, 16.10. 22:00 0.0 l/m2 in 1 Std. -
Di, 16.10. 21:30 0.0 l/m2 in 1 Std. -
Ortszeit Stärke Spitze Richtung
km/h Bft. km/h Grad Sektor
Di, 16.10. 20:00 4 1 29 200° S
Di, 16.10. 14:00 14 3 25 260° W
Di, 16.10. 8:00 7 2 14 240° SW
Di, 16.10. 2:00 7 2 11 240° SW
Mo, 15.10. 20:00 2 1 19 160° S
Mo, 15.10. 14:00 11 2 14 120° SO
Mo, 15.10. 8:00 4 1 18 270° W
Mo, 15.10. 2:00 9 2 31 190° S
Ortszeit Stärke Spitze Richtung
km/h Bft. km/h Grad Sektor
Mi, 17.10. 0:30 6 1 7 170° S
Mi, 17.10. 0:10 6 1 - 160° S
Mi, 17.10. 0:00 6 1 9 190° S
Di, 16.10. 23:50 6 1 - 190° S
Di, 16.10. 23:40 7 2 - 190° S
Di, 16.10. 23:30 6 1 9 170° S
Di, 16.10. 23:00 7 2 11 210° SW
Di, 16.10. 22:30 7 2 11 170° S
Di, 16.10. 22:00 6 1 9 170° S
Di, 16.10. 21:30 7 2 11 230° SW
Ortszeit Untergrenze Bedeckung Gattung
total tief tief mittel hoch
Di, 16.10. 20:00 3900 m 7/8 4/8 - - -
Di, 16.10. 14:00 3900 m 0/8 0/8 - - -
Di, 16.10. 8:00 - 0/8 0/8 - - -
Di, 16.10. 2:00 2400 m 7/8 7/8 - - -
Mo, 15.10. 20:00 - 0/8 0/8 - - -
Mo, 15.10. 14:00 - 0/8 0/8 - - -
Mo, 15.10. 8:00 - 0/8 0/8 - - -
Mo, 15.10. 2:00 - 0/8 0/8 - - -
Ortszeit Bedeckungsgrad in Achtel und Wolkenuntergrenze
Mi, 17.10. 0:30 4(9000m)
Mi, 17.10. 0:10 keine Wolken
Mi, 17.10. 0:00 1(9000m)
Di, 16.10. 23:50 1(9000m)
Di, 16.10. 23:40 3(9000m)
Di, 16.10. 23:30 3(9000m)
Di, 16.10. 23:00 6(4500m) 8(9000m)
Di, 16.10. 22:30 7(4500m)
Di, 16.10. 22:00 4(9000m) 5(9000m)
Di, 16.10. 21:30 5(4500m) 6(10500m)
Ortszeit Luftdruck NN (hPa) Tendenz (hPa in 3 Std.)
Di, 16.10. 20:00 1019 + 1,2
Di, 16.10. 14:00 1018 + 0,2
Di, 16.10. 8:00 1016 + 0,9
Di, 16.10. 2:00 1015 + 0,7
Mo, 15.10. 20:00 1014 + 1,1
Mo, 15.10. 14:00 1013 - 0,3
Mo, 15.10. 8:00 1012 + 0,7
Mo, 15.10. 2:00 1011 + 0,2
Ortszeit Luftdruck NN (hPa) Tendenz (hPa in 3 Std.)
Mi, 17.10. 0:30 1019 - 0,6
Mi, 17.10. 0:10 1019 keine Meldung
Mi, 17.10. 0:00 1019 - 0,3
Di, 16.10. 23:50 1019 keine Meldung
Di, 16.10. 23:40 1019 keine Meldung
Di, 16.10. 23:30 1019 - 0,1
Di, 16.10. 23:00 1019 - 0,1
Di, 16.10. 22:30 1019 + 0,4
Di, 16.10. 22:00 1019 + 0,6
Di, 16.10. 21:30 1019 + 0,8
Ortszeit Schneehöhe (cm)
Di, 16.10. 20:00 0
Di, 16.10. 14:00 0
Di, 16.10. 8:00 0
Di, 16.10. 2:00 0
Mo, 15.10. 20:00 0
Mo, 15.10. 14:00 0
Mo, 15.10. 8:00 0
Mo, 15.10. 2:00 0
Ortszeit Schneehöhe (cm)
Mi, 17.10. 0:30 0
Mi, 17.10. 0:10 0
Mi, 17.10. 0:00 0
Di, 16.10. 23:50 0
Di, 16.10. 23:40 0
Di, 16.10. 23:30 0
Di, 16.10. 23:00 0
Di, 16.10. 22:30 0
Di, 16.10. 22:00 0
Di, 16.10. 21:30 0
Link zu dieser Seite / Seite empfehlen

Das Wetter in ...